CYBB/YBB METAR and TAF weather

Enter ICAO airport designator
Station Type Date Time Source
CYBB METAR 2019/02/23 00:00 UTC NOAA

CYBB 230000Z 24015KT 2 1/2SM -SN BLSN FEW010 SCT020 M27/M30 A2978 RMK ST2SC2 -25.2/-26.6/0.4/18/HARD PACK/LAST STFD OBS/NXT/231600Z SLP088


Station Type Date Time Source
CYBB Decoded METAR 2019/02/23 00:00 UTC NOAA

Pelly Bay Airport, Canada (CYBB) 68-32N 089-49W
Feb 22, 2019 - 07:00 PM EST / 2019.02.23 0000 UTC
Wind: from the WSW (240 degrees) at 17 MPH (15 KT):0
Visibility: 2 1/2 mile(s):0
Sky conditions: partly cloudy
Weather: light snow; blowing snow
Temperature: -16 F (-27 C)
Windchill: -41 F (-41 C):2
Dew Point: -22 F (-30 C)
Relative Humidity: 75%
Pressure (altimeter): 29.78 in. Hg (1008 hPa)
ob: CYBB 230000Z 24015KT 2 1/2SM -SN BLSN FEW010 SCT020 M27/M30 A2978 RMK ST2SC2 -25.2/-26.6/0.4/18/HARD PACK/LAST STFD OBS/NXT/231600Z SLP088
cycle: 0

Station Type Date Time Source
CYBB TAF 2019/02/22 22:21 UTC NOAA

TAF
AMD TAF
AMD CYBB 222217Z 2222/2224 23018KT 1SM BLSN BKN009
TEMPO 2222/2224 4SM BLSN SCT009
RMK NXT FCST WILL BE ISSUED AT 231745Z


Example: see airport list